Terminal Aerodrome Forecast
Issued by NWS

Home | Current Version | Previous Version | Text Only | Print | Product List | Glossary Off
Versions: 1 2 3 4 5 6 7 8 9 10 11 12 13 14 15 16 17 18 19 20 21 22 23 24 25 26 27 28 29 30 31 32 33

000
FTUS43 KLOT 252320
TAFORD
TAF
KORD 252320Z 2600/2706 03009KT 3SM -SHRA BR OVC004
     FM260500 09008KT 2SM -RADZ BR OVC003
     FM261500 12004KT 3SM -RADZ BR OVC006
     FM261900 20007KT 5SM BR VCSH BKN015 OVC024
     FM270400 25005KT 5SM BR OVC009=

USA.gov is the U.S. government's official web portal to all federal, state and local government web resources and services.